EGOM

RAF Spadeadam Airport

Spadeadam, United Kingdom
METAR EGOM 170550Z AUTO 24010KT 9999 -RA SCT011/// SCT020/// BKN090/// 01/01 Q1016
Observed Flight Rules
Dec-17 @ 05:50 UTC (32 minutes ago) Visual Flight Rules
Wind Visibility Clouds Conditions
240° at 10 knots 10,000+ meters
  • Scattered at 1,100' AGL
  • Scattered at 2,000' AGL
  • Broken at 9,000' AGL
  • Light Rain
Temperatures Readings
Current 1°C / 34°F
Dewpoint 1°C / 34°F
Humidity 100%
Altimeter 30" Hg
Pressure 1016 hPa
Elevation 325
METAR EGOM 170550Z AUTO 24010KT 9999 -RA SCT011/// SCT020/// BKN090/// 01/01 Q1016
Observed Flight Rules
Dec-17 @ 05:50 UTC
(32 minutes ago)
VFR
Wind Visibility
240° at 10 knots 10,000+ meters
Clouds
  • Scattered at 1,100' AGL
  • Scattered at 2,000' AGL
  • Broken at 9,000' AGL
Conditions
  • Light Rain
Temperature Dewpoint
1°C / 34°F 1°C / 34°F
Humidity Altimeter Pressure
100% 30" Hg 1016 hPa